sensor_id;sensor_type;location;lat;lon;timestamp;P1;durP1;ratioP1;P2;durP2;ratioP2
2972;SDS011;1496;51.404;7.232;2022-07-12T00:01:03;3.63;;;1.90;;
2972;SDS011;1496;51.404;7.232;2022-07-12T00:03:29;8.03;;;2.67;;
2972;SDS011;1496;51.404;7.232;2022-07-12T00:05:54;2.43;;;2.10;;
2972;SDS011;1496;51.404;7.232;2022-07-12T00:08:21;2.23;;;1.90;;
2972;SDS011;1496;51.404;7.232;2022-07-12T00:10:47;2.30;;;2.10;;
2972;SDS011;1496;51.404;7.232;2022-07-12T00:13:13;2.40;;;2.03;;
2972;SDS011;1496;51.404;7.232;2022-07-12T00:15:40;2.53;;;2.20;;
2972;SDS011;1496;51.404;7.232;2022-07-12T00:18:06;2.40;;;2.20;;
2972;SDS011;1496;51.404;7.232;2022-07-12T00:20:31;3.00;;;1.80;;
2972;SDS011;1496;51.404;7.232;2022-07-12T00:22:57;1.83;;;1.73;;
2972;SDS011;1496;51.404;7.232;2022-07-12T00:25:23;2.40;;;2.00;;
2972;SDS011;1496;51.404;7.232;2022-07-12T00:27:48;2.47;;;1.97;;
2972;SDS011;1496;51.404;7.232;2022-07-12T00:30:15;2.93;;;1.80;;
2972;SDS011;1496;51.404;7.232;2022-07-12T00:32:40;3.07;;;2.57;;
2972;SDS011;1496;51.404;7.232;2022-07-12T00:35:06;2.30;;;2.00;;
2972;SDS011;1496;51.404;7.232;2022-07-12T00:37:32;2.50;;;2.30;;
2972;SDS011;1496;51.404;7.232;2022-07-12T00:39:58;2.33;;;2.00;;
2972;SDS011;1496;51.404;7.232;2022-07-12T00:42:25;2.30;;;2.10;;
2972;SDS011;1496;51.404;7.232;2022-07-12T00:44:51;3.00;;;2.50;;
2972;SDS011;1496;51.404;7.232;2022-07-12T00:47:25;4.77;;;2.20;;
2972;SDS011;1496;51.404;7.232;2022-07-12T00:49:58;2.13;;;1.87;;
2972;SDS011;1496;51.404;7.232;2022-07-12T00:52:24;3.37;;;1.87;;
2972;SDS011;1496;51.404;7.232;2022-07-12T00:54:50;2.93;;;2.07;;
2972;SDS011;1496;51.404;7.232;2022-07-12T00:57:16;2.50;;;2.10;;
2972;SDS011;1496;51.404;7.232;2022-07-12T00:59:42;2.17;;;1.70;;
2972;SDS011;1496;51.404;7.232;2022-07-12T01:02:08;2.70;;;1.97;;
2972;SDS011;1496;51.404;7.232;2022-07-12T01:04:34;2.47;;;1.80;;
2972;SDS011;1496;51.404;7.232;2022-07-12T01:07:00;2.43;;;2.10;;
2972;SDS011;1496;51.404;7.232;2022-07-12T01:09:27;2.63;;;2.40;;
2972;SDS011;1496;51.404;7.232;2022-07-12T01:11:53;3.37;;;2.30;;
2972;SDS011;1496;51.404;7.232;2022-07-12T01:14:19;4.43;;;2.00;;
2972;SDS011;1496;51.404;7.232;2022-07-12T01:16:45;2.40;;;2.20;;
2972;SDS011;1496;51.404;7.232;2022-07-12T01:19:12;2.43;;;2.23;;
2972;SDS011;1496;51.404;7.232;2022-07-12T01:21:45;2.93;;;2.23;;
2972;SDS011;1496;51.404;7.232;2022-07-12T01:24:14;3.50;;;2.00;;
2972;SDS011;1496;51.404;7.232;2022-07-12T01:26:40;2.30;;;2.10;;
2972;SDS011;1496;51.404;7.232;2022-07-12T01:29:06;2.73;;;2.00;;
2972;SDS011;1496;51.404;7.232;2022-07-12T01:31:34;2.50;;;2.30;;
2972;SDS011;1496;51.404;7.232;2022-07-12T01:34:01;2.40;;;1.80;;
2972;SDS011;1496;51.404;7.232;2022-07-12T01:36:32;2.90;;;2.50;;
2972;SDS011;1496;51.404;7.232;2022-07-12T01:38:58;3.23;;;2.60;;
2972;SDS011;1496;51.404;7.232;2022-07-12T01:41:24;3.40;;;2.57;;
2972;SDS011;1496;51.404;7.232;2022-07-12T01:43:50;2.80;;;2.47;;
2972;SDS011;1496;51.404;7.232;2022-07-12T01:46:16;2.30;;;2.10;;
2972;SDS011;1496;51.404;7.232;2022-07-12T01:48:42;2.67;;;2.47;;
2972;SDS011;1496;51.404;7.232;2022-07-12T01:51:08;3.30;;;2.50;;
2972;SDS011;1496;51.404;7.232;2022-07-12T01:53:36;2.73;;;2.27;;
2972;SDS011;1496;51.404;7.232;2022-07-12T01:56:02;3.63;;;2.20;;
2972;SDS011;1496;51.404;7.232;2022-07-12T01:58:29;4.60;;;2.13;;
2972;SDS011;1496;51.404;7.232;2022-07-12T02:00:55;2.10;;;1.90;;
2972;SDS011;1496;51.404;7.232;2022-07-12T02:03:23;4.80;;;2.20;;
2972;SDS011;1496;51.404;7.232;2022-07-12T02:05:49;2.27;;;1.87;;
2972;SDS011;1496;51.404;7.232;2022-07-12T02:08:15;2.57;;;2.03;;
2972;SDS011;1496;51.404;7.232;2022-07-12T02:10:41;2.93;;;1.50;;
2972;SDS011;1496;51.404;7.232;2022-07-12T02:13:07;2.33;;;1.90;;
2972;SDS011;1496;51.404;7.232;2022-07-12T02:15:33;2.57;;;2.17;;
2972;SDS011;1496;51.404;7.232;2022-07-12T02:17:59;2.60;;;2.40;;
2972;SDS011;1496;51.404;7.232;2022-07-12T02:20:25;2.50;;;1.97;;
2972;SDS011;1496;51.404;7.232;2022-07-12T02:22:50;5.43;;;2.17;;
2972;SDS011;1496;51.404;7.232;2022-07-12T02:25:16;2.70;;;2.50;;
2972;SDS011;1496;51.404;7.232;2022-07-12T02:27:42;2.80;;;2.60;;
2972;SDS011;1496;51.404;7.232;2022-07-12T02:30:09;2.97;;;2.77;;
2972;SDS011;1496;51.404;7.232;2022-07-12T02:32:35;2.80;;;2.60;;
2972;SDS011;1496;51.404;7.232;2022-07-12T02:35:03;3.83;;;2.57;;
2972;SDS011;1496;51.404;7.232;2022-07-12T02:37:29;3.53;;;3.00;;
2972;SDS011;1496;51.404;7.232;2022-07-12T02:39:55;3.43;;;2.60;;
2972;SDS011;1496;51.404;7.232;2022-07-12T02:42:41;4.27;;;2.60;;
2972;SDS011;1496;51.404;7.232;2022-07-12T02:45:08;3.17;;;2.87;;
2972;SDS011;1496;51.404;7.232;2022-07-12T02:47:36;2.83;;;2.60;;
2972;SDS011;1496;51.404;7.232;2022-07-12T02:50:05;3.63;;;2.90;;
2972;SDS011;1496;51.404;7.232;2022-07-12T02:52:32;4.70;;;2.93;;
2972;SDS011;1496;51.404;7.232;2022-07-12T02:54:58;3.90;;;2.37;;
2972;SDS011;1496;51.404;7.232;2022-07-12T02:57:23;2.70;;;2.03;;
2972;SDS011;1496;51.404;7.232;2022-07-12T02:59:49;3.23;;;2.73;;
2972;SDS011;1496;51.404;7.232;2022-07-12T03:02:15;3.10;;;2.80;;
2972;SDS011;1496;51.404;7.232;2022-07-12T03:04:40;2.67;;;2.47;;
2972;SDS011;1496;51.404;7.232;2022-07-12T03:07:06;3.07;;;2.80;;
2972;SDS011;1496;51.404;7.232;2022-07-12T03:09:32;3.33;;;3.03;;
2972;SDS011;1496;51.404;7.232;2022-07-12T03:11:57;3.67;;;3.10;;
2972;SDS011;1496;51.404;7.232;2022-07-12T03:14:23;2.60;;;2.40;;
2972;SDS011;1496;51.404;7.232;2022-07-12T03:16:49;3.03;;;2.70;;
2972;SDS011;1496;51.404;7.232;2022-07-12T03:19:15;2.50;;;2.30;;
2972;SDS011;1496;51.404;7.232;2022-07-12T03:21:40;2.50;;;2.30;;
2972;SDS011;1496;51.404;7.232;2022-07-12T03:24:07;3.17;;;2.70;;
2972;SDS011;1496;51.404;7.232;2022-07-12T03:26:33;3.40;;;2.70;;
2972;SDS011;1496;51.404;7.232;2022-07-12T03:28:58;5.17;;;3.13;;
2972;SDS011;1496;51.404;7.232;2022-07-12T03:31:26;3.37;;;2.90;;
2972;SDS011;1496;51.404;7.232;2022-07-12T03:33:52;5.83;;;2.70;;
2972;SDS011;1496;51.404;7.232;2022-07-12T03:36:18;3.67;;;3.37;;
2972;SDS011;1496;51.404;7.232;2022-07-12T03:38:44;3.63;;;2.70;;
2972;SDS011;1496;51.404;7.232;2022-07-12T03:41:09;5.80;;;3.47;;
2972;SDS011;1496;51.404;7.232;2022-07-12T03:43:35;2.97;;;2.67;;
2972;SDS011;1496;51.404;7.232;2022-07-12T03:46:01;3.30;;;3.00;;
2972;SDS011;1496;51.404;7.232;2022-07-12T03:48:27;3.27;;;2.97;;
2972;SDS011;1496;51.404;7.232;2022-07-12T03:50:52;2.80;;;2.60;;
2972;SDS011;1496;51.404;7.232;2022-07-12T03:53:18;3.40;;;2.70;;
2972;SDS011;1496;51.404;7.232;2022-07-12T03:55:44;2.73;;;2.53;;
2972;SDS011;1496;51.404;7.232;2022-07-12T03:58:10;4.37;;;3.87;;
2972;SDS011;1496;51.404;7.232;2022-07-12T04:00:35;3.50;;;3.10;;
2972;SDS011;1496;51.404;7.232;2022-07-12T04:03:01;3.90;;;3.17;;
2972;SDS011;1496;51.404;7.232;2022-07-12T04:05:27;6.00;;;3.80;;
2972;SDS011;1496;51.404;7.232;2022-07-12T04:07:53;4.17;;;3.77;;
2972;SDS011;1496;51.404;7.232;2022-07-12T04:10:19;4.93;;;3.70;;
2972;SDS011;1496;51.404;7.232;2022-07-12T04:12:45;4.10;;;3.63;;
2972;SDS011;1496;51.404;7.232;2022-07-12T04:15:11;4.07;;;3.70;;
2972;SDS011;1496;51.404;7.232;2022-07-12T04:17:37;4.60;;;3.50;;
2972;SDS011;1496;51.404;7.232;2022-07-12T04:20:03;3.40;;;3.03;;
2972;SDS011;1496;51.404;7.232;2022-07-12T04:22:30;4.90;;;3.40;;
2972;SDS011;1496;51.404;7.232;2022-07-12T04:24:55;4.20;;;3.30;;
2972;SDS011;1496;51.404;7.232;2022-07-12T04:27:21;3.50;;;2.90;;
2972;SDS011;1496;51.404;7.232;2022-07-12T04:29:47;5.70;;;3.37;;
2972;SDS011;1496;51.404;7.232;2022-07-12T04:32:12;3.50;;;3.13;;
2972;SDS011;1496;51.404;7.232;2022-07-12T04:34:38;4.30;;;2.60;;
2972;SDS011;1496;51.404;7.232;2022-07-12T04:37:04;4.63;;;3.27;;
2972;SDS011;1496;51.404;7.232;2022-07-12T04:39:29;7.47;;;2.90;;
2972;SDS011;1496;51.404;7.232;2022-07-12T04:41:55;3.93;;;2.60;;
2972;SDS011;1496;51.404;7.232;2022-07-12T04:44:20;4.20;;;3.37;;
2972;SDS011;1496;51.404;7.232;2022-07-12T04:46:46;3.40;;;3.10;;
2972;SDS011;1496;51.404;7.232;2022-07-12T04:49:12;6.90;;;2.60;;
2972;SDS011;1496;51.404;7.232;2022-07-12T04:51:37;3.83;;;2.20;;
2972;SDS011;1496;51.404;7.232;2022-07-12T04:54:03;7.27;;;2.47;;
2972;SDS011;1496;51.404;7.232;2022-07-12T04:56:29;11.53;;;3.20;;
2972;SDS011;1496;51.404;7.232;2022-07-12T04:58:54;6.60;;;3.30;;
2972;SDS011;1496;51.404;7.232;2022-07-12T05:01:20;3.60;;;3.30;;
2972;SDS011;1496;51.404;7.232;2022-07-12T05:03:46;6.27;;;3.33;;
2972;SDS011;1496;51.404;7.232;2022-07-12T05:06:12;5.47;;;3.07;;
2972;SDS011;1496;51.404;7.232;2022-07-12T05:08:38;8.83;;;3.80;;
2972;SDS011;1496;51.404;7.232;2022-07-12T05:11:04;3.70;;;3.30;;
2972;SDS011;1496;51.404;7.232;2022-07-12T05:13:30;3.57;;;3.27;;
2972;SDS011;1496;51.404;7.232;2022-07-12T05:15:56;5.20;;;3.30;;
2972;SDS011;1496;51.404;7.232;2022-07-12T05:18:21;7.20;;;3.13;;
2972;SDS011;1496;51.404;7.232;2022-07-12T05:20:47;6.83;;;4.40;;
2972;SDS011;1496;51.404;7.232;2022-07-12T05:23:13;4.87;;;3.33;;
2972;SDS011;1496;51.404;7.232;2022-07-12T05:25:39;4.40;;;3.70;;
2972;SDS011;1496;51.404;7.232;2022-07-12T05:28:05;9.20;;;4.40;;
2972;SDS011;1496;51.404;7.232;2022-07-12T05:30:30;5.70;;;3.30;;
2972;SDS011;1496;51.404;7.232;2022-07-12T05:32:56;7.33;;;3.60;;
2972;SDS011;1496;51.404;7.232;2022-07-12T05:35:22;4.83;;;3.97;;
2972;SDS011;1496;51.404;7.232;2022-07-12T05:37:48;4.40;;;3.77;;
2972;SDS011;1496;51.404;7.232;2022-07-12T05:40:13;3.97;;;3.63;;
2972;SDS011;1496;51.404;7.232;2022-07-12T05:42:39;4.67;;;4.13;;
2972;SDS011;1496;51.404;7.232;2022-07-12T05:45:05;3.33;;;3.00;;
2972;SDS011;1496;51.404;7.232;2022-07-12T05:47:31;3.27;;;2.97;;
2972;SDS011;1496;51.404;7.232;2022-07-12T05:49:57;3.97;;;2.90;;
2972;SDS011;1496;51.404;7.232;2022-07-12T05:52:23;6.70;;;3.20;;
2972;SDS011;1496;51.404;7.232;2022-07-12T05:55:07;3.37;;;3.07;;
2972;SDS011;1496;51.404;7.232;2022-07-12T05:57:36;2.70;;;2.17;;
2972;SDS011;1496;51.404;7.232;2022-07-12T06:00:02;4.00;;;3.00;;
2972;SDS011;1496;51.404;7.232;2022-07-12T06:02:29;6.50;;;3.00;;
2972;SDS011;1496;51.404;7.232;2022-07-12T06:04:55;4.40;;;3.33;;
2972;SDS011;1496;51.404;7.232;2022-07-12T06:07:21;5.73;;;3.90;;
2972;SDS011;1496;51.404;7.232;2022-07-12T06:09:47;4.90;;;4.10;;
2972;SDS011;1496;51.404;7.232;2022-07-12T06:12:12;3.07;;;2.73;;
2972;SDS011;1496;51.404;7.232;2022-07-12T06:14:38;9.70;;;2.50;;
2972;SDS011;1496;51.404;7.232;2022-07-12T06:17:06;4.50;;;3.10;;
2972;SDS011;1496;51.404;7.232;2022-07-12T06:19:33;4.07;;;2.93;;
2972;SDS011;1496;51.404;7.232;2022-07-12T06:21:58;9.53;;;2.73;;
2972;SDS011;1496;51.404;7.232;2022-07-12T06:24:25;5.33;;;2.63;;
2972;SDS011;1496;51.404;7.232;2022-07-12T06:26:51;5.10;;;2.53;;
2972;SDS011;1496;51.404;7.232;2022-07-12T06:29:16;4.43;;;2.93;;
2972;SDS011;1496;51.404;7.232;2022-07-12T06:31:42;7.47;;;2.57;;
2972;SDS011;1496;51.404;7.232;2022-07-12T06:34:08;6.43;;;3.57;;
2972;SDS011;1496;51.404;7.232;2022-07-12T06:36:33;10.90;;;3.97;;
2972;SDS011;1496;51.404;7.232;2022-07-12T06:38:59;4.40;;;2.90;;
2972;SDS011;1496;51.404;7.232;2022-07-12T06:41:27;4.57;;;3.40;;
2972;SDS011;1496;51.404;7.232;2022-07-12T06:43:54;4.50;;;3.17;;
2972;SDS011;1496;51.404;7.232;2022-07-12T06:46:23;3.27;;;2.70;;
2972;SDS011;1496;51.404;7.232;2022-07-12T06:48:49;5.87;;;3.20;;
2972;SDS011;1496;51.404;7.232;2022-07-12T06:51:14;5.53;;;3.07;;
2972;SDS011;1496;51.404;7.232;2022-07-12T06:53:40;5.80;;;3.70;;
2972;SDS011;1496;51.404;7.232;2022-07-12T06:56:08;5.17;;;3.80;;
2972;SDS011;1496;51.404;7.232;2022-07-12T06:58:34;7.50;;;3.07;;
2972;SDS011;1496;51.404;7.232;2022-07-12T07:01:00;3.83;;;2.93;;
2972;SDS011;1496;51.404;7.232;2022-07-12T07:03:25;5.57;;;4.03;;
2972;SDS011;1496;51.404;7.232;2022-07-12T07:05:51;3.80;;;3.37;;
2972;SDS011;1496;51.404;7.232;2022-07-12T07:08:17;4.23;;;3.07;;
2972;SDS011;1496;51.404;7.232;2022-07-12T07:10:43;6.03;;;5.40;;
2972;SDS011;1496;51.404;7.232;2022-07-12T07:13:08;5.40;;;4.90;;
2972;SDS011;1496;51.404;7.232;2022-07-12T07:15:35;6.93;;;6.07;;
2972;SDS011;1496;51.404;7.232;2022-07-12T07:18:04;9.63;;;5.00;;
2972;SDS011;1496;51.404;7.232;2022-07-12T07:20:30;17.33;;;6.67;;
2972;SDS011;1496;51.404;7.232;2022-07-12T07:22:55;17.10;;;5.70;;
2972;SDS011;1496;51.404;7.232;2022-07-12T07:25:21;16.20;;;5.03;;
2972;SDS011;1496;51.404;7.232;2022-07-12T07:27:47;18.63;;;5.37;;
2972;SDS011;1496;51.404;7.232;2022-07-12T07:30:13;17.97;;;3.90;;
2972;SDS011;1496;51.404;7.232;2022-07-12T07:32:57;18.73;;;3.50;;
2972;SDS011;1496;51.404;7.232;2022-07-12T07:35:22;18.97;;;4.43;;
2972;SDS011;1496;51.404;7.232;2022-07-12T07:37:48;20.10;;;3.50;;
2972;SDS011;1496;51.404;7.232;2022-07-12T07:40:14;21.27;;;5.10;;
2972;SDS011;1496;51.404;7.232;2022-07-12T07:42:40;21.20;;;4.30;;
2972;SDS011;1496;51.404;7.232;2022-07-12T07:45:06;23.90;;;4.17;;
2972;SDS011;1496;51.404;7.232;2022-07-12T07:47:42;20.63;;;4.30;;
2972;SDS011;1496;51.404;7.232;2022-07-12T07:50:12;20.77;;;4.93;;
2972;SDS011;1496;51.404;7.232;2022-07-12T07:52:37;20.70;;;4.20;;
2972;SDS011;1496;51.404;7.232;2022-07-12T07:55:03;22.23;;;4.30;;
2972;SDS011;1496;51.404;7.232;2022-07-12T07:57:32;19.60;;;3.93;;
2972;SDS011;1496;51.404;7.232;2022-07-12T07:59:58;21.67;;;4.30;;
2972;SDS011;1496;51.404;7.232;2022-07-12T08:02:24;20.93;;;4.13;;
2972;SDS011;1496;51.404;7.232;2022-07-12T08:04:52;19.67;;;3.30;;
2972;SDS011;1496;51.404;7.232;2022-07-12T08:07:18;19.87;;;3.97;;
2972;SDS011;1496;51.404;7.232;2022-07-12T08:09:44;19.63;;;3.03;;
2972;SDS011;1496;51.404;7.232;2022-07-12T08:12:09;19.13;;;2.97;;
2972;SDS011;1496;51.404;7.232;2022-07-12T08:14:35;21.80;;;3.80;;
2972;SDS011;1496;51.404;7.232;2022-07-12T08:17:01;16.53;;;3.03;;
2972;SDS011;1496;51.404;7.232;2022-07-12T08:19:27;17.50;;;2.87;;
2972;SDS011;1496;51.404;7.232;2022-07-12T08:21:52;14.50;;;2.90;;
2972;SDS011;1496;51.404;7.232;2022-07-12T08:24:18;16.50;;;3.20;;
2972;SDS011;1496;51.404;7.232;2022-07-12T08:26:44;13.50;;;2.33;;
2972;SDS011;1496;51.404;7.232;2022-07-12T08:29:09;12.80;;;2.50;;
2972;SDS011;1496;51.404;7.232;2022-07-12T08:31:35;12.10;;;3.27;;
2972;SDS011;1496;51.404;7.232;2022-07-12T08:34:01;13.57;;;2.90;;
2972;SDS011;1496;51.404;7.232;2022-07-12T08:36:27;15.77;;;3.10;;
2972;SDS011;1496;51.404;7.232;2022-07-12T08:38:53;14.00;;;3.10;;
2972;SDS011;1496;51.404;7.232;2022-07-12T08:41:18;10.37;;;2.60;;
2972;SDS011;1496;51.404;7.232;2022-07-12T08:43:44;8.30;;;1.80;;
2972;SDS011;1496;51.404;7.232;2022-07-12T08:46:10;6.43;;;2.27;;
2972;SDS011;1496;51.404;7.232;2022-07-12T08:48:41;7.57;;;2.87;;
2972;SDS011;1496;51.404;7.232;2022-07-12T08:51:09;4.00;;;2.47;;
2972;SDS011;1496;51.404;7.232;2022-07-12T08:53:36;5.60;;;2.30;;
2972;SDS011;1496;51.404;7.232;2022-07-12T08:56:06;3.57;;;2.13;;
2972;SDS011;1496;51.404;7.232;2022-07-12T08:59:08;3.13;;;1.57;;
2972;SDS011;1496;51.404;7.232;2022-07-12T09:01:41;3.13;;;1.30;;
2972;SDS011;1496;51.404;7.232;2022-07-12T09:04:22;3.17;;;2.00;;
2972;SDS011;1496;51.404;7.232;2022-07-12T09:06:49;3.50;;;2.07;;
2972;SDS011;1496;51.404;7.232;2022-07-12T09:09:26;2.00;;;1.50;;
2972;SDS011;1496;51.404;7.232;2022-07-12T09:11:52;2.60;;;1.90;;
2972;SDS011;1496;51.404;7.232;2022-07-12T09:14:19;5.70;;;1.63;;
2972;SDS011;1496;51.404;7.232;2022-07-12T09:16:57;2.40;;;1.50;;
2972;SDS011;1496;51.404;7.232;2022-07-12T09:19:28;4.10;;;1.10;;
2972;SDS011;1496;51.404;7.232;2022-07-12T09:21:54;3.60;;;1.50;;
2972;SDS011;1496;51.404;7.232;2022-07-12T09:24:23;1.53;;;1.20;;
2972;SDS011;1496;51.404;7.232;2022-07-12T09:26:52;2.97;;;1.80;;
2972;SDS011;1496;51.404;7.232;2022-07-12T09:29:21;2.03;;;1.50;;
2972;SDS011;1496;51.404;7.232;2022-07-12T09:31:48;3.50;;;1.40;;
2972;SDS011;1496;51.404;7.232;2022-07-12T09:34:34;3.00;;;1.23;;
2972;SDS011;1496;51.404;7.232;2022-07-12T09:37:19;3.37;;;1.53;;
2972;SDS011;1496;51.404;7.232;2022-07-12T09:39:45;1.70;;;1.10;;
2972;SDS011;1496;51.404;7.232;2022-07-12T09:42:13;1.93;;;1.10;;
2972;SDS011;1496;51.404;7.232;2022-07-12T09:44:39;4.83;;;2.17;;
2972;SDS011;1496;51.404;7.232;2022-07-12T09:47:08;2.63;;;1.00;;
2972;SDS011;1496;51.404;7.232;2022-07-12T09:49:40;1.50;;;1.10;;
2972;SDS011;1496;51.404;7.232;2022-07-12T09:52:10;2.67;;;1.23;;
2972;SDS011;1496;51.404;7.232;2022-07-12T09:54:47;2.17;;;1.10;;
2972;SDS011;1496;51.404;7.232;2022-07-12T09:59:58;1.50;;;1.00;;
2972;SDS011;1496;51.404;7.232;2022-07-12T10:02:24;2.17;;;1.10;;
2972;SDS011;1496;51.404;7.232;2022-07-12T10:04:51;1.40;;;0.90;;
2972;SDS011;1496;51.404;7.232;2022-07-12T10:07:18;1.63;;;0.80;;
2972;SDS011;1496;51.404;7.232;2022-07-12T10:09:45;2.83;;;1.10;;
2972;SDS011;1496;51.404;7.232;2022-07-12T10:12:15;1.30;;;0.80;;
2972;SDS011;1496;51.404;7.232;2022-07-12T10:14:43;1.17;;;0.63;;
2972;SDS011;1496;51.404;7.232;2022-07-12T10:17:09;1.50;;;0.73;;
2972;SDS011;1496;51.404;7.232;2022-07-12T10:19:36;1.30;;;0.70;;
2972;SDS011;1496;51.404;7.232;2022-07-12T10:22:03;1.37;;;0.77;;
2972;SDS011;1496;51.404;7.232;2022-07-12T10:26:59;1.73;;;0.80;;
2972;SDS011;1496;51.404;7.232;2022-07-12T10:29:46;2.90;;;0.80;;
2972;SDS011;1496;51.404;7.232;2022-07-12T10:32:24;1.10;;;0.67;;
2972;SDS011;1496;51.404;7.232;2022-07-12T10:34:58;4.13;;;0.70;;
2972;SDS011;1496;51.404;7.232;2022-07-12T10:37:31;1.53;;;0.70;;
2972;SDS011;1496;51.404;7.232;2022-07-12T10:42:39;1.37;;;0.77;;
2972;SDS011;1496;51.404;7.232;2022-07-12T10:45:12;2.53;;;1.20;;
2972;SDS011;1496;51.404;7.232;2022-07-12T10:48:03;1.83;;;0.80;;
2972;SDS011;1496;51.404;7.232;2022-07-12T10:56:51;2.43;;;0.80;;
2972;SDS011;1496;51.404;7.232;2022-07-12T10:58:48;1.20;;;0.70;;
2972;SDS011;1496;51.404;7.232;2022-07-12T11:01:20;1.47;;;0.60;;
2972;SDS011;1496;51.404;7.232;2022-07-12T11:04:14;1.30;;;0.77;;
2972;SDS011;1496;51.404;7.232;2022-07-12T11:06:40;1.30;;;0.60;;
2972;SDS011;1496;51.404;7.232;2022-07-12T11:09:07;3.10;;;1.17;;
2972;SDS011;1496;51.404;7.232;2022-07-12T11:11:34;3.23;;;1.50;;
2972;SDS011;1496;51.404;7.232;2022-07-12T11:14:06;2.30;;;0.80;;
2972;SDS011;1496;51.404;7.232;2022-07-12T11:16:32;1.90;;;0.70;;
2972;SDS011;1496;51.404;7.232;2022-07-12T11:18:58;1.60;;;0.80;;
2972;SDS011;1496;51.404;7.232;2022-07-12T11:21:24;3.30;;;1.23;;
2972;SDS011;1496;51.404;7.232;2022-07-12T11:23:53;2.73;;;0.97;;
2972;SDS011;1496;51.404;7.232;2022-07-12T11:26:19;1.30;;;0.70;;
2972;SDS011;1496;51.404;7.232;2022-07-12T11:28:45;1.73;;;0.70;;
2972;SDS011;1496;51.404;7.232;2022-07-12T11:31:14;2.13;;;0.60;;
2972;SDS011;1496;51.404;7.232;2022-07-12T11:33:42;1.97;;;0.80;;
2972;SDS011;1496;51.404;7.232;2022-07-12T11:36:10;2.17;;;0.67;;
2972;SDS011;1496;51.404;7.232;2022-07-12T11:38:38;1.60;;;0.70;;
2972;SDS011;1496;51.404;7.232;2022-07-12T11:41:09;3.73;;;0.70;;
2972;SDS011;1496;51.404;7.232;2022-07-12T11:43:35;1.40;;;0.70;;
2972;SDS011;1496;51.404;7.232;2022-07-12T11:46:04;1.10;;;0.67;;
2972;SDS011;1496;51.404;7.232;2022-07-12T11:48:31;3.30;;;0.80;;
2972;SDS011;1496;51.404;7.232;2022-07-12T11:51:00;1.30;;;0.60;;
2972;SDS011;1496;51.404;7.232;2022-07-12T11:53:27;1.77;;;0.80;;
2972;SDS011;1496;51.404;7.232;2022-07-12T11:55:54;1.87;;;0.70;;
2972;SDS011;1496;51.404;7.232;2022-07-12T11:58:23;1.40;;;0.60;;
2972;SDS011;1496;51.404;7.232;2022-07-12T12:00:51;1.50;;;0.80;;
2972;SDS011;1496;51.404;7.232;2022-07-12T12:03:18;1.50;;;0.70;;
2972;SDS011;1496;51.404;7.232;2022-07-12T12:05:49;1.30;;;0.60;;
2972;SDS011;1496;51.404;7.232;2022-07-12T12:08:19;1.30;;;0.70;;
2972;SDS011;1496;51.404;7.232;2022-07-12T12:10:54;1.93;;;0.70;;
2972;SDS011;1496;51.404;7.232;2022-07-12T12:13:22;1.30;;;0.60;;
2972;SDS011;1496;51.404;7.232;2022-07-12T12:15:54;5.63;;;0.90;;
2972;SDS011;1496;51.404;7.232;2022-07-12T12:18:33;1.90;;;0.90;;
2972;SDS011;1496;51.404;7.232;2022-07-12T12:21:07;1.30;;;0.70;;
2972;SDS011;1496;51.404;7.232;2022-07-12T12:23:38;1.40;;;0.63;;
2972;SDS011;1496;51.404;7.232;2022-07-12T12:28:43;1.80;;;1.17;;
2972;SDS011;1496;51.404;7.232;2022-07-12T12:31:10;1.50;;;0.70;;
2972;SDS011;1496;51.404;7.232;2022-07-12T12:33:37;3.70;;;0.80;;
2972;SDS011;1496;51.404;7.232;2022-07-12T12:36:13;2.17;;;0.90;;
2972;SDS011;1496;51.404;7.232;2022-07-12T12:38:43;2.83;;;0.80;;
2972;SDS011;1496;51.404;7.232;2022-07-12T12:41:10;1.93;;;0.80;;
2972;SDS011;1496;51.404;7.232;2022-07-12T12:43:37;1.03;;;0.60;;
2972;SDS011;1496;51.404;7.232;2022-07-12T12:46:02;2.40;;;0.93;;
2972;SDS011;1496;51.404;7.232;2022-07-12T12:48:29;3.30;;;0.80;;
2972;SDS011;1496;51.404;7.232;2022-07-12T12:53:36;1.10;;;0.60;;
2972;SDS011;1496;51.404;7.232;2022-07-12T12:56:13;3.80;;;0.80;;
2972;SDS011;1496;51.404;7.232;2022-07-12T12:58:40;1.30;;;0.60;;
2972;SDS011;1496;51.404;7.232;2022-07-12T13:01:06;2.20;;;0.70;;
2972;SDS011;1496;51.404;7.232;2022-07-12T13:03:33;1.53;;;0.70;;
2972;SDS011;1496;51.404;7.232;2022-07-12T13:05:59;1.60;;;0.70;;
2972;SDS011;1496;51.404;7.232;2022-07-12T13:08:26;1.83;;;0.80;;
2972;SDS011;1496;51.404;7.232;2022-07-12T13:10:52;1.10;;;0.70;;
2972;SDS011;1496;51.404;7.232;2022-07-12T13:13:37;2.37;;;0.80;;
2972;SDS011;1496;51.404;7.232;2022-07-12T13:16:04;1.20;;;0.70;;
2972;SDS011;1496;51.404;7.232;2022-07-12T13:18:30;7.13;;;1.93;;
2972;SDS011;1496;51.404;7.232;2022-07-12T13:20:56;1.47;;;0.80;;
2972;SDS011;1496;51.404;7.232;2022-07-12T13:23:22;1.53;;;0.80;;
2972;SDS011;1496;51.404;7.232;2022-07-12T13:25:48;2.73;;;0.80;;
2972;SDS011;1496;51.404;7.232;2022-07-12T13:30:50;1.27;;;0.77;;
2972;SDS011;1496;51.404;7.232;2022-07-12T13:33:18;1.40;;;0.87;;
2972;SDS011;1496;51.404;7.232;2022-07-12T13:35:43;2.33;;;0.70;;
2972;SDS011;1496;51.404;7.232;2022-07-12T13:38:09;2.13;;;0.80;;
2972;SDS011;1496;51.404;7.232;2022-07-12T13:40:35;2.20;;;0.80;;
2972;SDS011;1496;51.404;7.232;2022-07-12T13:43:01;1.40;;;0.60;;
2972;SDS011;1496;51.404;7.232;2022-07-12T13:45:26;2.27;;;0.90;;
2972;SDS011;1496;51.404;7.232;2022-07-12T13:47:52;2.50;;;0.90;;
2972;SDS011;1496;51.404;7.232;2022-07-12T13:50:21;1.30;;;0.80;;
2972;SDS011;1496;51.404;7.232;2022-07-12T13:52:48;1.20;;;0.80;;
2972;SDS011;1496;51.404;7.232;2022-07-12T13:55:14;3.77;;;1.20;;
2972;SDS011;1496;51.404;7.232;2022-07-12T13:57:41;1.50;;;0.90;;
2972;SDS011;1496;51.404;7.232;2022-07-12T14:00:09;5.13;;;1.13;;
2972;SDS011;1496;51.404;7.232;2022-07-12T14:02:44;2.13;;;1.10;;
2972;SDS011;1496;51.404;7.232;2022-07-12T14:05:11;1.50;;;1.10;;
2972;SDS011;1496;51.404;7.232;2022-07-12T14:07:38;3.60;;;1.30;;
2972;SDS011;1496;51.404;7.232;2022-07-12T14:10:05;4.33;;;1.30;;
2972;SDS011;1496;51.404;7.232;2022-07-12T14:12:32;1.90;;;1.27;;
2972;SDS011;1496;51.404;7.232;2022-07-12T14:14:58;1.97;;;1.20;;
2972;SDS011;1496;51.404;7.232;2022-07-12T14:17:42;2.50;;;1.27;;
2972;SDS011;1496;51.404;7.232;2022-07-12T14:20:10;1.77;;;1.37;;
2972;SDS011;1496;51.404;7.232;2022-07-12T14:22:37;1.70;;;1.10;;
2972;SDS011;1496;51.404;7.232;2022-07-12T14:25:03;2.53;;;1.07;;
2972;SDS011;1496;51.404;7.232;2022-07-12T14:27:31;2.70;;;1.47;;
2972;SDS011;1496;51.404;7.232;2022-07-12T14:29:57;2.13;;;1.17;;
2972;SDS011;1496;51.404;7.232;2022-07-12T14:32:23;2.00;;;1.60;;
2972;SDS011;1496;51.404;7.232;2022-07-12T14:34:49;3.87;;;1.57;;
2972;SDS011;1496;51.404;7.232;2022-07-12T14:37:15;1.50;;;1.10;;
2972;SDS011;1496;51.404;7.232;2022-07-12T14:39:41;1.70;;;1.00;;
2972;SDS011;1496;51.404;7.232;2022-07-12T14:42:06;2.13;;;0.90;;
2972;SDS011;1496;51.404;7.232;2022-07-12T14:44:33;3.57;;;1.07;;
2972;SDS011;1496;51.404;7.232;2022-07-12T14:46:59;2.00;;;1.43;;
2972;SDS011;1496;51.404;7.232;2022-07-12T14:49:24;10.17;;;1.47;;
2972;SDS011;1496;51.404;7.232;2022-07-12T14:51:51;5.07;;;1.60;;
2972;SDS011;1496;51.404;7.232;2022-07-12T14:54:23;4.27;;;1.50;;
2972;SDS011;1496;51.404;7.232;2022-07-12T14:56:53;2.73;;;1.50;;
2972;SDS011;1496;51.404;7.232;2022-07-12T14:59:19;3.30;;;1.70;;
2972;SDS011;1496;51.404;7.232;2022-07-12T15:01:45;2.33;;;1.40;;
2972;SDS011;1496;51.404;7.232;2022-07-12T15:04:11;1.67;;;1.27;;
2972;SDS011;1496;51.404;7.232;2022-07-12T15:06:39;2.57;;;1.67;;
2972;SDS011;1496;51.404;7.232;2022-07-12T15:09:05;1.80;;;1.40;;
2972;SDS011;1496;51.404;7.232;2022-07-12T15:11:31;2.20;;;1.47;;
2972;SDS011;1496;51.404;7.232;2022-07-12T15:13:57;3.80;;;1.73;;
2972;SDS011;1496;51.404;7.232;2022-07-12T15:16:25;2.60;;;1.40;;
2972;SDS011;1496;51.404;7.232;2022-07-12T15:18:51;2.80;;;1.40;;
2972;SDS011;1496;51.404;7.232;2022-07-12T15:21:17;2.90;;;1.90;;
2972;SDS011;1496;51.404;7.232;2022-07-12T15:23:42;4.20;;;1.70;;
2972;SDS011;1496;51.404;7.232;2022-07-12T15:26:08;3.10;;;1.60;;
2972;SDS011;1496;51.404;7.232;2022-07-12T15:28:41;6.60;;;1.83;;
2972;SDS011;1496;51.404;7.232;2022-07-12T15:31:18;3.33;;;2.00;;
2972;SDS011;1496;51.404;7.232;2022-07-12T15:33:45;4.50;;;1.43;;
2972;SDS011;1496;51.404;7.232;2022-07-12T15:36:11;2.17;;;1.97;;
2972;SDS011;1496;51.404;7.232;2022-07-12T15:38:37;2.43;;;1.90;;